ADDS TAF Board (Experimental) INFO Settings
IDs:

KMCI - Kansas City Intl, MO, US

Issued at 1120 UTC 22 May 2015
Updated at: 1313 UTC 22 May 2015
Time1253Z 22/14Z 22/15Z 22/16Z 22/17Z 22/18Z 22/19Z 22/20Z 22/21Z 22/22Z 22/23Z 23/00Z 23/01Z 23/02Z
Type OBS PRVL PRVL PRVL PRVL PRVL PRVL PRVL PRVL PRVL PRVL PRVL PRVL PRVL
VIS 10 >6 >6 >6 >6 >6 >6 >6 >6 >6 >6 >6 >6 >6
CIG 140 150 150 150 150 150 150 150 80 80 80 80 80 80
Cover OVC BKN BKN BKN BKN BKN BKN BKN BKN BKN BKN BKN BKN BKN
FltCat VFR VFR VFR VFR VFR VFR VFR VFR VFR VFR VFR VFR VFR VFR
WX -- -- -- -- -- -- -- -- -- -- -- -- -- --
WDir VRB 220 220 220 220 220 220 220 160 160 160 160 160 160
WSpd 0 5 5 5 5 5 5 5 6 6 6 6 6 6
WGst -- -- -- -- -- -- -- -- -- -- -- -- -- --
R01/19
XWnd VRB 2 2 2 2 2 2 2 -3 -3 -3 -3 -3 -3
HWnd VRB -4 -4 -4 -4 -4 -4 -4 -5 -5 -5 -5 -5 -5
R09/27
XWnd VRB -4 -4 -4 -4 -4 -4 -4 -5 -5 -5 -5 -5 -5
HWnd VRB -3 -3 -3 -3 -3 -3 -3 3 3 3 3 3 3

NOTE: TEMPO conditions in [brackets]. Keep in mind TEMPO conditions might be better (lower impact) than prevailing conditions.

Raw TAF
KMCI 221120Z 2212/2312 22005KT P6SM BKN150
  FM222100 16006KT P6SM BKN080
  FM230600 12006KT P6SM VCSH BKN040


Raw METAR
KMCI 221253Z 00000KT 10SM SCT100 BKN140 OVC200 14/08 A3024 RMK AO2 SLP234 T01390083
KMCI 221153Z 06003KT 10SM SCT140 SCT250 12/09 A3023 RMK AO2 SLP232 T01170089 10117 20078 51006
KMCI 221053Z 00000KT 10SM SCT250 08/06 A3022 RMK AO2 SLP231 T00830061

METAR Board
Radar Display
Forecast Discussion

TAF Board Legend

Potential Impact
Threat None Slight Moderate High
Visibility (sm) ≥5.1 5.1>X≥3 3>X≥1 <1
Ceiling (100 ft) ≥30.1 30.1>X≥10 10>X≥5 <5
Wind Speed (kt) <10 10≤X<20 20≤X<30 ≥30
Wind Gust (kt) <15 15≤X<25 25≤X<35 ≥35
Weather No Wx Reported VCTS,-TS,-FZRA,SN TS,FZRA +TS,+FZRA,+SN